createdAt,value
2019-02-20T00:00:01.592Z,6.2
2019-02-20T00:01:03.730Z,6.2
2019-02-20T00:02:06.235Z,6.3
2019-02-20T00:03:09.032Z,6.2
2019-02-20T00:04:11.486Z,6.3
2019-02-20T00:05:13.882Z,6.3
2019-02-20T00:06:16.011Z,6.3
2019-02-20T00:07:18.409Z,6.2
2019-02-20T00:08:21.104Z,6.2
2019-02-20T00:09:25.447Z,6.2
2019-02-20T00:10:28.204Z,6.2
2019-02-20T00:11:30.707Z,6.2
2019-02-20T00:12:32.836Z,6.2
2019-02-20T00:13:35.401Z,6.1
2019-02-20T00:14:38.206Z,6.2
2019-02-20T00:15:40.324Z,6.1
2019-02-20T00:16:42.451Z,6.2
2019-02-20T00:17:44.554Z,6.1
2019-02-20T00:18:46.954Z,6.1
2019-02-20T00:19:49.071Z,6
2019-02-20T00:20:51.485Z,6
2019-02-20T00:21:53.912Z,6
2019-02-20T00:22:56.815Z,6
2019-02-20T00:23:59.321Z,6.1
2019-02-20T00:25:01.450Z,6
2019-02-20T00:26:03.544Z,6
2019-02-20T00:27:06.256Z,6
2019-02-20T00:28:08.369Z,6
2019-02-20T00:29:10.808Z,6
2019-02-20T00:30:13.617Z,6
2019-02-20T00:31:15.727Z,6
2019-02-20T00:32:18.158Z,6
2019-02-20T00:33:20.571Z,6
2019-02-20T00:34:22.707Z,6
2019-02-20T00:35:24.810Z,6
2019-02-20T00:36:27.322Z,6
2019-02-20T00:37:30.003Z,6
2019-02-20T00:38:32.492Z,6
2019-02-20T00:39:34.937Z,6.1
2019-02-20T00:40:37.335Z,6.1
2019-02-20T00:41:39.452Z,6.1
2019-02-20T00:42:41.566Z,6.1
2019-02-20T00:43:43.690Z,6.1
2019-02-20T00:44:45.802Z,6.1
2019-02-20T00:45:48.218Z,6.1
2019-02-20T00:46:50.329Z,6.1
2019-02-20T00:47:52.452Z,6.1
2019-02-20T00:48:54.868Z,6.2
2019-02-20T00:49:56.991Z,6.2
2019-02-20T00:50:59.099Z,6.2
2019-02-20T00:52:01.833Z,6.2
2019-02-20T00:53:05.223Z,6.2
2019-02-20T00:54:10.050Z,6.2
2019-02-20T00:55:12.478Z,6.2
2019-02-20T00:56:15.273Z,6.2
2019-02-20T00:57:17.973Z,6.3
2019-02-20T00:58:20.084Z,6.3
2019-02-20T00:59:22.861Z,6.3
2019-02-20T01:00:25.639Z,6.3
2019-02-20T01:01:28.044Z,6.3
2019-02-20T01:02:30.459Z,6.3
2019-02-20T01:03:32.568Z,6.3
2019-02-20T01:04:34.986Z,6.3
2019-02-20T01:05:37.110Z,6.3
2019-02-20T01:06:39.551Z,6.3
2019-02-20T01:07:42.019Z,6.3
2019-02-20T01:08:44.142Z,6.3
2019-02-20T01:09:46.641Z,6.3
2019-02-20T01:10:48.762Z,6.3
2019-02-20T01:11:51.204Z,6.3
2019-02-20T01:12:53.307Z,6.3
2019-02-20T01:13:55.724Z,6.3
2019-02-20T01:14:58.585Z,6.3
2019-02-20T01:16:00.716Z,6.3
2019-02-20T01:17:03.867Z,6.3
2019-02-20T01:18:06.605Z,6.3
2019-02-20T01:19:09.112Z,6.3
2019-02-20T01:20:11.288Z,6.3
2019-02-20T01:21:13.428Z,6.3
2019-02-20T01:22:15.873Z,6.3
2019-02-20T01:23:18.291Z,6.3
2019-02-20T01:24:20.425Z,6.3
2019-02-20T01:25:22.825Z,6.3
2019-02-20T01:26:24.935Z,6.3
2019-02-20T01:27:27.353Z,6.3
2019-02-20T01:28:30.036Z,6.3
2019-02-20T01:29:32.219Z,6.3
2019-02-20T01:30:34.653Z,6.3
2019-02-20T01:31:37.068Z,6.3
2019-02-20T01:32:39.180Z,6.3
2019-02-20T01:33:41.606Z,6.3
2019-02-20T01:34:44.296Z,6.3
2019-02-20T01:35:46.694Z,6.3
2019-02-20T01:36:48.805Z,6.3
2019-02-20T01:37:50.936Z,6.3
2019-02-20T01:38:53.339Z,6.3
2019-02-20T01:39:56.434Z,6.3
2019-02-20T01:40:58.569Z,6.3
2019-02-20T01:42:00.700Z,6.3
2019-02-20T01:43:03.385Z,6.3
2019-02-20T01:44:05.784Z,6.3
2019-02-20T01:45:07.914Z,6.3
2019-02-20T01:46:10.022Z,6.3
2019-02-20T01:47:12.147Z,6.3
2019-02-20T01:48:14.595Z,6.4
2019-02-20T01:49:17.044Z,6.4
2019-02-20T01:50:19.722Z,6.4
2019-02-20T01:51:21.835Z,6.4
2019-02-20T01:52:24.228Z,6.4
2019-02-20T01:53:26.349Z,6.4
2019-02-20T01:54:29.042Z,6.4
2019-02-20T01:55:31.219Z,6.4
2019-02-20T01:56:33.320Z,6.4
2019-02-20T01:57:35.454Z,6.4
2019-02-20T01:58:37.563Z,6.4
2019-02-20T01:59:39.717Z,6.4
2019-02-20T02:00:41.854Z,6.4
2019-02-20T02:01:43.954Z,6.4
2019-02-20T02:02:46.382Z,6.4
2019-02-20T02:03:48.499Z,6.4
2019-02-20T02:04:51.001Z,6.4
2019-02-20T02:05:53.099Z,6.4
2019-02-20T02:06:55.219Z,6.4
2019-02-20T02:07:57.333Z,6.4
2019-02-20T02:09:01.537Z,6.4
2019-02-20T02:10:04.117Z,6.4
2019-02-20T02:11:06.249Z,6.4
2019-02-20T02:12:08.707Z,6.4
2019-02-20T02:13:10.819Z,6.4
2019-02-20T02:14:13.331Z,6.4
2019-02-20T02:15:21.772Z,6.4
2019-02-20T02:16:24.273Z,6.4
2019-02-20T02:17:26.673Z,6.4
2019-02-20T02:18:28.804Z,6.4
2019-02-20T02:19:31.188Z,6.4
2019-02-20T02:20:33.314Z,6.4
2019-02-20T02:21:35.439Z,6.4
2019-02-20T02:22:37.557Z,6.4
2019-02-20T02:23:39.953Z,6.4
2019-02-20T02:24:42.079Z,6.4
2019-02-20T02:25:44.559Z,6.4
2019-02-20T02:26:46.674Z,6.4
2019-02-20T02:27:49.107Z,6.4
2019-02-20T02:28:51.506Z,6.4
2019-02-20T02:29:53.900Z,6.4
2019-02-20T02:30:56.048Z,6.4
2019-02-20T02:31:58.873Z,6.4
2019-02-20T02:33:01.012Z,6.4
2019-02-20T02:34:03.161Z,6.4
2019-02-20T02:35:05.322Z,6.4
2019-02-20T02:36:08.173Z,6.4
2019-02-20T02:37:10.591Z,6.4
2019-02-20T02:38:12.733Z,6.4
2019-02-20T02:39:15.167Z,6.4
2019-02-20T02:40:18.007Z,6.4
2019-02-20T02:41:20.405Z,6.4
2019-02-20T02:42:22.882Z,6.4
2019-02-20T02:43:25.349Z,6.4
2019-02-20T02:44:27.760Z,6.4
2019-02-20T02:45:29.951Z,6.4
2019-02-20T02:46:32.083Z,6.4
2019-02-20T02:47:34.220Z,6.4
2019-02-20T02:48:36.627Z,6.4
2019-02-20T02:49:39.025Z,6.4
2019-02-20T02:50:41.854Z,6.4
2019-02-20T02:51:43.958Z,6.4
2019-02-20T02:52:46.421Z,6.4
2019-02-20T02:53:49.241Z,6.4
2019-02-20T02:54:52.192Z,6.4
2019-02-20T02:55:54.314Z,6.4
2019-02-20T02:56:56.456Z,6.3
2019-02-20T02:57:59.283Z,6.3
2019-02-20T02:59:01.386Z,6.3
2019-02-20T03:00:03.813Z,6.3
2019-02-20T03:01:05.935Z,6.3
2019-02-20T03:02:08.353Z,6.3
2019-02-20T03:03:10.456Z,6.3
2019-02-20T03:04:12.897Z,6.3
2019-02-20T03:05:15.029Z,6.3
2019-02-20T03:06:17.436Z,6.3
2019-02-20T03:07:19.563Z,6.3
2019-02-20T03:08:21.667Z,6.3
2019-02-20T03:09:24.219Z,6.3
2019-02-20T03:10:27.151Z,6.3
2019-02-20T03:11:29.274Z,6.3
2019-02-20T03:12:31.366Z,6.3
2019-02-20T03:13:33.898Z,6.3
2019-02-20T03:14:36.418Z,6.3
2019-02-20T03:15:39.311Z,6.3
2019-02-20T03:16:42.116Z,6.4
2019-02-20T03:17:44.230Z,6.4
2019-02-20T03:18:46.350Z,6.4
2019-02-20T03:19:48.478Z,6.4
2019-02-20T03:20:50.900Z,6.4
2019-02-20T03:21:53.009Z,6.4
2019-02-20T03:22:55.532Z,6.4
2019-02-20T03:23:57.759Z,6.4
2019-02-20T03:25:00.724Z,6.4
2019-02-20T03:26:02.871Z,6.4
2019-02-20T03:27:05.573Z,6.4
2019-02-20T03:28:07.960Z,6.4
2019-02-20T03:29:10.375Z,6.4
2019-02-20T03:30:13.303Z,6.4
2019-02-20T03:31:15.500Z,6.4
2019-02-20T03:32:18.684Z,6.4
2019-02-20T03:33:21.966Z,6.4
2019-02-20T03:34:25.015Z,6.4
2019-02-20T03:35:27.435Z,6.4
2019-02-20T03:36:30.144Z,6.4
2019-02-20T03:37:32.245Z,6.4
2019-02-20T03:38:34.370Z,6.4
2019-02-20T03:39:37.072Z,6.4
2019-02-20T03:40:39.495Z,6.4
2019-02-20T03:41:42.624Z,6.4
2019-02-20T03:42:45.158Z,6.4
2019-02-20T03:43:47.267Z,6.4
2019-02-20T03:44:50.062Z,6.4
2019-02-20T03:45:52.588Z,6.4
2019-02-20T03:46:55.277Z,6.4
2019-02-20T03:47:57.412Z,6.4
2019-02-20T03:49:00.124Z,6.4
2019-02-20T03:50:02.642Z,6.4
2019-02-20T03:51:05.099Z,6.4
2019-02-20T03:52:07.220Z,6.4
2019-02-20T03:53:09.337Z,6.4
2019-02-20T03:54:11.722Z,6.4
2019-02-20T03:55:13.846Z,6.4
2019-02-20T03:56:15.968Z,6.4
2019-02-20T03:57:18.363Z,6.4
2019-02-20T03:58:20.570Z,6.4
2019-02-20T03:59:22.960Z,6.4
2019-02-20T04:00:25.372Z,6.4
2019-02-20T04:01:27.838Z,6.4
2019-02-20T04:02:29.971Z,6.4
2019-02-20T04:03:32.644Z,6.4
2019-02-20T04:04:34.791Z,6.4
2019-02-20T04:05:36.901Z,6.4
2019-02-20T04:06:39.029Z,6.4
2019-02-20T04:07:41.501Z,6.4
2019-02-20T04:08:44.030Z,6.4
2019-02-20T04:09:46.467Z,6.4
2019-02-20T04:10:48.569Z,6.4
2019-02-20T04:11:50.692Z,6.4
2019-02-20T04:12:53.427Z,6.4
2019-02-20T04:13:55.884Z,6.4
2019-02-20T04:14:58.334Z,6.4
2019-02-20T04:16:00.443Z,6.4
2019-02-20T04:17:03.553Z,6.4
2019-02-20T04:18:06.063Z,6.4
2019-02-20T04:19:08.582Z,6.4
2019-02-20T04:20:10.739Z,6.4
2019-02-20T04:21:13.537Z,6.4
2019-02-20T04:22:15.662Z,6.4
2019-02-20T04:23:18.051Z,6.4
2019-02-20T04:24:20.561Z,6.4
2019-02-20T04:25:22.686Z,6.4
2019-02-20T04:26:24.824Z,6.4
2019-02-20T04:27:26.937Z,6.4
2019-02-20T04:28:29.364Z,6.4
2019-02-20T04:29:31.488Z,6.4
2019-02-20T04:30:33.612Z,6.4
2019-02-20T04:31:35.763Z,6.4
2019-02-20T04:32:38.160Z,6.4
2019-02-20T04:33:40.278Z,6.4
2019-02-20T04:34:42.412Z,6.4
2019-02-20T04:35:44.594Z,6.4
2019-02-20T04:36:47.115Z,6.4
2019-02-20T04:37:49.258Z,6.4
2019-02-20T04:38:51.955Z,6.4
2019-02-20T04:39:54.070Z,6.4
2019-02-20T04:40:56.237Z,6.4
2019-02-20T04:41:58.651Z,6.4
2019-02-20T04:43:00.771Z,6.4
2019-02-20T04:44:03.920Z,6.4
2019-02-20T04:45:06.608Z,6.4
2019-02-20T04:46:09.026Z,6.4
2019-02-20T04:47:11.767Z,6.4
2019-02-20T04:48:13.922Z,6.4
2019-02-20T04:49:16.029Z,6.4
2019-02-20T04:50:18.484Z,6.4
2019-02-20T04:51:20.601Z,6.4
2019-02-20T04:52:23.025Z,6.4
2019-02-20T04:53:25.517Z,6.4
2019-02-20T04:54:27.961Z,6.4
2019-02-20T04:55:31.199Z,6.4
2019-02-20T04:56:33.302Z,6.4
2019-02-20T04:57:35.471Z,6.4
2019-02-20T04:58:37.611Z,6.4
2019-02-20T04:59:40.018Z,6.4
2019-02-20T05:00:42.433Z,6.3
2019-02-20T05:01:44.624Z,6.3
2019-02-20T05:02:47.314Z,6.3
2019-02-20T05:03:50.032Z,6.3
2019-02-20T05:04:52.537Z,6.3
2019-02-20T05:05:54.668Z,6.3
2019-02-20T05:06:57.383Z,6.3
2019-02-20T05:07:59.834Z,6.3
2019-02-20T05:09:03.244Z,6.3
2019-02-20T05:10:05.649Z,6.3
2019-02-20T05:11:07.784Z,6.3
2019-02-20T05:12:09.909Z,6.3
2019-02-20T05:13:12.049Z,6.3
2019-02-20T05:14:14.858Z,6.3
2019-02-20T05:15:16.975Z,6.3
2019-02-20T05:16:19.787Z,6.3
2019-02-20T05:17:22.275Z,6.3
2019-02-20T05:18:24.798Z,6.3
2019-02-20T05:19:27.305Z,6.3
2019-02-20T05:20:30.461Z,6.3
2019-02-20T05:21:32.863Z,6.3
2019-02-20T05:22:34.979Z,6.3
2019-02-20T05:23:37.389Z,6.3
2019-02-20T05:24:39.840Z,6.3
2019-02-20T05:25:42.007Z,6.3
2019-02-20T05:26:44.400Z,6.3
2019-02-20T05:27:46.845Z,6.3
2019-02-20T05:28:49.292Z,6.3
2019-02-20T05:29:51.712Z,6.3
2019-02-20T05:30:54.449Z,6.2
2019-02-20T05:31:56.629Z,6.2
2019-02-20T05:32:59.068Z,6.2
2019-02-20T05:34:01.628Z,6.2
2019-02-20T05:35:03.779Z,6.2
2019-02-20T05:36:05.903Z,6.2
2019-02-20T05:37:08.098Z,6.2
2019-02-20T05:38:10.566Z,6.2
2019-02-20T05:39:13.096Z,6.2
2019-02-20T05:40:15.215Z,6.2
2019-02-20T05:41:18.437Z,6.2
2019-02-20T05:42:20.904Z,6.1
2019-02-20T05:43:23.015Z,6.1
2019-02-20T05:44:25.603Z,6.2
2019-02-20T05:45:27.716Z,6.1
2019-02-20T05:46:30.139Z,6.1
2019-02-20T05:47:32.983Z,6.1
2019-02-20T05:48:35.198Z,6.1
2019-02-20T05:49:37.324Z,6.1
2019-02-20T05:50:39.482Z,6
2019-02-20T05:51:41.907Z,6
2019-02-20T05:52:44.622Z,6
2019-02-20T05:53:47.085Z,6
2019-02-20T05:54:49.207Z,6
2019-02-20T05:55:51.345Z,6
2019-02-20T05:56:53.483Z,6
2019-02-20T05:57:55.616Z,5.9
2019-02-20T05:58:58.119Z,5.9
2019-02-20T06:00:00.650Z,5.9
2019-02-20T06:01:02.820Z,5.9
2019-02-20T06:02:05.625Z,5.9
2019-02-20T06:03:08.467Z,5.8
2019-02-20T06:04:10.571Z,5.8
2019-02-20T06:05:13.306Z,5.8
2019-02-20T06:06:15.790Z,5.8
2019-02-20T06:07:18.267Z,5.8
2019-02-20T06:08:20.673Z,5.8
2019-02-20T06:09:25.179Z,5.8
2019-02-20T06:10:27.308Z,5.8
2019-02-20T06:11:29.805Z,5.7
2019-02-20T06:12:31.948Z,5.8
2019-02-20T06:13:34.475Z,5.7
2019-02-20T06:14:36.585Z,5.7
2019-02-20T06:15:38.718Z,5.7
2019-02-20T06:16:41.154Z,5.7
2019-02-20T06:17:43.966Z,5.8
2019-02-20T06:18:46.113Z,5.8
2019-02-20T06:19:48.964Z,5.8
2019-02-20T06:20:51.424Z,5.7
2019-02-20T06:21:54.222Z,5.7
2019-02-20T06:22:56.651Z,5.7
2019-02-20T06:23:58.754Z,5.7
2019-02-20T06:25:02.047Z,5.7
2019-02-20T06:26:05.220Z,5.7
2019-02-20T06:27:09.383Z,5.7
2019-02-20T06:28:12.127Z,5.7
2019-02-20T06:29:14.644Z,5.7
2019-02-20T06:30:17.472Z,5.8
2019-02-20T06:31:19.870Z,5.8
2019-02-20T06:32:24.349Z,5.8
2019-02-20T06:33:26.449Z,5.7
2019-02-20T06:34:28.621Z,5.7
2019-02-20T06:35:31.059Z,5.7
2019-02-20T06:36:33.178Z,5.7
2019-02-20T06:37:36.160Z,5.7
2019-02-20T06:38:38.581Z,5.7
2019-02-20T06:39:41.090Z,5.7
2019-02-20T06:40:43.612Z,5.7
2019-02-20T06:41:46.634Z,5.7
2019-02-20T06:42:49.055Z,5.7
2019-02-20T06:43:51.179Z,5.7
2019-02-20T06:44:53.275Z,5.8
2019-02-20T06:45:55.787Z,5.7
2019-02-20T06:46:57.895Z,5.7
2019-02-20T06:48:00.314Z,5.7
2019-02-20T06:49:02.708Z,5.7
2019-02-20T06:50:04.840Z,5.7
2019-02-20T06:51:07.248Z,5.7
2019-02-20T06:52:09.769Z,5.7
2019-02-20T06:53:12.891Z,5.7
2019-02-20T06:54:14.993Z,5.7
2019-02-20T06:55:17.419Z,5.7
2019-02-20T06:56:19.548Z,5.7
2019-02-20T06:57:21.655Z,5.7
2019-02-20T06:58:24.077Z,5.8
2019-02-20T06:59:26.202Z,5.7
2019-02-20T07:00:28.304Z,5.7
2019-02-20T07:01:30.439Z,5.7
2019-02-20T07:02:32.552Z,5.8
2019-02-20T07:03:35.059Z,5.8
2019-02-20T07:04:37.172Z,5.8
2019-02-20T07:05:39.587Z,5.7
2019-02-20T07:06:42.026Z,5.8
2019-02-20T07:07:45.027Z,5.7
2019-02-20T07:08:48.219Z,5.8
2019-02-20T07:09:50.315Z,5.8
2019-02-20T07:10:52.747Z,5.7
2019-02-20T07:11:54.859Z,5.8
2019-02-20T07:12:56.980Z,5.8
2019-02-20T07:13:59.377Z,5.8
2019-02-20T07:15:02.390Z,5.7
2019-02-20T07:16:04.544Z,5.8
2019-02-20T07:17:08.334Z,5.7
2019-02-20T07:18:10.759Z,5.8
2019-02-20T07:19:12.929Z,5.8
2019-02-20T07:20:16.123Z,5.8
2019-02-20T07:21:18.230Z,5.8
2019-02-20T07:22:22.072Z,5.8
2019-02-20T07:23:24.515Z,5.8
2019-02-20T07:24:27.645Z,5.8
2019-02-20T07:25:30.183Z,5.8
2019-02-20T07:26:32.310Z,5.8
2019-02-20T07:27:34.410Z,5.9
2019-02-20T07:28:36.812Z,5.9
2019-02-20T07:29:39.538Z,5.9
2019-02-20T07:30:41.925Z,6
2019-02-20T07:31:44.766Z,6
2019-02-20T07:32:47.557Z,6.1
2019-02-20T07:33:49.661Z,6.1
2019-02-20T07:34:52.470Z,6.1
2019-02-20T07:35:54.590Z,6.1
2019-02-20T07:36:57.336Z,6.1
2019-02-20T07:38:00.051Z,6.1
2019-02-20T07:39:02.752Z,6.1
2019-02-20T07:40:05.300Z,6.1
2019-02-20T07:41:07.830Z,6.1
2019-02-20T07:42:09.969Z,6.1
2019-02-20T07:43:12.089Z,6.1
2019-02-20T07:44:14.221Z,6.1
2019-02-20T07:45:16.347Z,6.1
2019-02-20T07:46:18.473Z,6.1
2019-02-20T07:47:20.873Z,6.1
2019-02-20T07:48:22.993Z,6.2
2019-02-20T07:49:25.105Z,6.2
2019-02-20T07:50:27.219Z,6.2
2019-02-20T07:51:29.352Z,6.2
2019-02-20T07:52:31.454Z,6.2
2019-02-20T07:53:34.523Z,6.2
2019-02-20T07:54:36.718Z,6.2
2019-02-20T07:55:39.511Z,6.2
2019-02-20T07:56:41.621Z,6.3
2019-02-20T07:57:43.746Z,6.3
2019-02-20T07:58:46.446Z,6.4
2019-02-20T07:59:49.371Z,6.4
2019-02-20T08:00:51.786Z,6.4
2019-02-20T08:01:53.907Z,6.4
2019-02-20T08:02:56.089Z,6.4
2019-02-20T08:03:58.209Z,6.4
2019-02-20T08:05:01.052Z,6.4
2019-02-20T08:06:03.618Z,6.5
2019-02-20T08:07:07.037Z,6.6
2019-02-20T08:08:09.211Z,6.6
2019-02-20T08:09:11.653Z,6.6
2019-02-20T08:10:14.765Z,6.6
2019-02-20T08:11:17.454Z,6.6
2019-02-20T08:12:20.047Z,6.7
2019-02-20T08:13:22.506Z,6.7
2019-02-20T08:14:24.929Z,6.7
2019-02-20T08:15:27.072Z,6.7
2019-02-20T08:16:29.462Z,6.7
2019-02-20T08:17:31.593Z,6.7
2019-02-20T08:18:33.738Z,6.7
2019-02-20T08:19:36.151Z,6.8
2019-02-20T08:20:38.537Z,6.8
2019-02-20T08:21:40.989Z,6.8
2019-02-20T08:22:43.683Z,6.8
2019-02-20T08:23:46.786Z,6.9
2019-02-20T08:24:49.215Z,6.9
2019-02-20T08:25:51.615Z,6.9
2019-02-20T08:26:54.327Z,6.9
2019-02-20T08:27:56.750Z,6.8
2019-02-20T08:28:59.271Z,6.8
2019-02-20T08:30:01.716Z,6.8
2019-02-20T08:31:03.853Z,6.8
2019-02-20T08:32:06.357Z,6.8
2019-02-20T08:33:08.475Z,6.8
2019-02-20T08:34:10.596Z,6.8
2019-02-20T08:35:12.713Z,6.9
2019-02-20T08:36:15.500Z,6.9
2019-02-20T08:37:17.635Z,6.9
2019-02-20T08:38:22.265Z,6.9
2019-02-20T08:39:24.952Z,7
2019-02-20T08:40:27.096Z,7
2019-02-20T08:41:29.480Z,6.9
2019-02-20T08:42:31.603Z,6.9
2019-02-20T08:43:33.727Z,6.9
2019-02-20T08:44:36.901Z,6.9
2019-02-20T08:45:39.002Z,6.9
2019-02-20T08:46:42.098Z,7
2019-02-20T08:47:44.810Z,7
2019-02-20T08:48:46.926Z,7
2019-02-20T08:49:49.759Z,7
2019-02-20T08:50:51.885Z,7
2019-02-20T08:51:54.315Z,7
2019-02-20T08:52:56.824Z,7
2019-02-20T08:53:59.266Z,7.1
2019-02-20T08:55:01.875Z,7.1
2019-02-20T08:56:04.608Z,7
2019-02-20T08:57:07.020Z,7
2019-02-20T08:58:10.210Z,7
2019-02-20T08:59:13.033Z,7
2019-02-20T09:00:15.164Z,7.1
2019-02-20T09:01:17.675Z,7
2019-02-20T09:02:20.126Z,7
2019-02-20T09:03:23.117Z,7
2019-02-20T09:04:25.240Z,7.1
2019-02-20T09:05:27.685Z,7.1
2019-02-20T09:06:30.660Z,7.2
2019-02-20T09:07:32.761Z,7.2
2019-02-20T09:08:35.269Z,7.1
2019-02-20T09:09:37.786Z,7.1
2019-02-20T09:10:40.169Z,7.2
2019-02-20T09:11:42.297Z,7.2
2019-02-20T09:12:44.730Z,7.2
2019-02-20T09:13:47.253Z,7.3
2019-02-20T09:14:49.362Z,7.4
2019-02-20T09:15:51.488Z,7.3
2019-02-20T09:16:54.005Z,7.3
2019-02-20T09:17:56.499Z,7.2
2019-02-20T09:18:58.884Z,7.4
2019-02-20T09:20:01.233Z,7.4
2019-02-20T09:21:04.327Z,7.4
2019-02-20T09:22:07.173Z,7.4
2019-02-20T09:23:09.719Z,7.3
2019-02-20T09:24:11.834Z,7.4
2019-02-20T09:25:21.148Z,7.4
2019-02-20T09:26:23.261Z,7.4
2019-02-20T09:27:25.788Z,7.4
2019-02-20T09:28:28.499Z,7.4
2019-02-20T09:29:30.678Z,7.4
2019-02-20T09:30:34.223Z,7.4
2019-02-20T09:31:36.337Z,7.4
2019-02-20T09:32:38.469Z,7.3
2019-02-20T09:33:40.594Z,7.4
2019-02-20T09:34:42.991Z,7.3
2019-02-20T09:35:45.106Z,7.4
2019-02-20T09:36:47.246Z,7.5
2019-02-20T09:37:49.355Z,7.6
2019-02-20T09:38:51.499Z,7.6
2019-02-20T09:39:53.625Z,7.7
2019-02-20T09:40:56.022Z,7.8
2019-02-20T09:41:58.160Z,7.8
2019-02-20T09:43:00.294Z,7.8
2019-02-20T09:44:02.429Z,7.8
2019-02-20T09:45:04.554Z,8
2019-02-20T09:46:06.964Z,7.9
2019-02-20T09:47:09.091Z,8
2019-02-20T09:48:11.630Z,8
2019-02-20T09:49:14.336Z,8
2019-02-20T09:50:17.831Z,7.9
2019-02-20T09:51:20.253Z,7.9
2019-02-20T09:52:22.762Z,7.9
2019-02-20T09:53:25.176Z,7.9
2019-02-20T09:54:27.296Z,7.9
2019-02-20T09:55:29.687Z,7.9
2019-02-20T09:56:32.535Z,7.8
2019-02-20T09:57:34.936Z,7.8
2019-02-20T09:58:37.654Z,7.8
2019-02-20T09:59:39.770Z,7.8
2019-02-20T10:00:41.909Z,7.9
2019-02-20T10:01:44.713Z,7.9
2019-02-20T10:02:48.541Z,7.8
2019-02-20T10:03:50.962Z,7.8
2019-02-20T10:04:53.065Z,7.9
2019-02-20T10:05:55.507Z,7.9
2019-02-20T10:06:57.625Z,8
2019-02-20T10:07:59.758Z,8
2019-02-20T10:09:01.880Z,8.1
2019-02-20T10:10:04.888Z,8.1
2019-02-20T10:11:07.003Z,8.1
2019-02-20T10:12:09.786Z,8.1
2019-02-20T10:13:12.709Z,8.1
2019-02-20T10:14:15.731Z,8.2
2019-02-20T10:15:18.647Z,8.3
2019-02-20T10:16:20.787Z,8.3
2019-02-20T10:17:22.897Z,8.1
2019-02-20T10:18:25.331Z,8.2
2019-02-20T10:19:27.458Z,8.2
2019-02-20T10:20:29.910Z,8.3
2019-02-20T10:21:32.679Z,8.3
2019-02-20T10:22:35.186Z,8.3
2019-02-20T10:23:37.692Z,8.3
2019-02-20T10:24:39.807Z,8.3
2019-02-20T10:25:42.635Z,8.3
2019-02-20T10:26:45.797Z,8.2
2019-02-20T10:27:47.925Z,8.2
2019-02-20T10:28:50.643Z,8.2
2019-02-20T10:29:53.159Z,8.3
2019-02-20T10:30:55.578Z,8.3
2019-02-20T10:31:58.100Z,8.4
2019-02-20T10:33:00.804Z,8.4
2019-02-20T10:34:03.225Z,8.5
2019-02-20T10:35:05.339Z,8.5
2019-02-20T10:36:07.899Z,8.6
2019-02-20T10:37:10.315Z,8.6
2019-02-20T10:38:12.423Z,8.5
2019-02-20T10:39:14.553Z,8.6
2019-02-20T10:40:17.469Z,8.6
2019-02-20T10:41:19.597Z,8.5
2019-02-20T10:42:21.733Z,8.4
2019-02-20T10:43:23.946Z,8.5
2019-02-20T10:44:26.676Z,8.5
2019-02-20T10:45:28.813Z,8.6
2019-02-20T10:46:30.936Z,8.6
2019-02-20T10:47:33.334Z,8.5
2019-02-20T10:48:36.437Z,8.6
2019-02-20T10:49:39.969Z,8.7
2019-02-20T10:50:42.356Z,8.8
2019-02-20T10:51:44.482Z,8.8
2019-02-20T10:52:46.610Z,8.8
2019-02-20T10:53:48.786Z,8.9
2019-02-20T10:54:59.280Z,8.8
2019-02-20T10:56:11.086Z,8.8
2019-02-20T10:57:13.218Z,8.9
2019-02-20T10:58:15.330Z,9
2019-02-20T10:59:17.540Z,9.1
2019-02-20T11:00:25.920Z,9.1
2019-02-20T11:01:28.057Z,9
2019-02-20T11:02:30.757Z,9
2019-02-20T11:03:32.871Z,9.1
2019-02-20T11:04:35.012Z,9.1
2019-02-20T11:05:37.148Z,9.2
2019-02-20T11:06:39.559Z,9.1
2019-02-20T11:07:41.679Z,9.2
2019-02-20T11:08:43.819Z,9.2
2019-02-20T11:09:47.454Z,9.2
2019-02-20T11:10:49.564Z,9.3
2019-02-20T11:11:52.304Z,9.3
2019-02-20T11:12:56.726Z,9.2
2019-02-20T11:13:58.844Z,9.1
2019-02-20T11:15:01.296Z,9.2
2019-02-20T11:16:03.742Z,9.2
2019-02-20T11:17:05.858Z,9.2
2019-02-20T11:18:08.020Z,9.1
2019-02-20T11:19:10.143Z,9.1
2019-02-20T11:20:14.739Z,9.1
2019-02-20T11:21:17.258Z,9.2
2019-02-20T11:22:21.593Z,9.2
2019-02-20T11:23:23.999Z,9.3
2019-02-20T11:24:26.145Z,9.3
2019-02-20T11:25:28.307Z,9.2
2019-02-20T11:26:30.705Z,9.3
2019-02-20T11:27:32.834Z,9.3
2019-02-20T11:28:34.981Z,9.3
2019-02-20T11:29:37.103Z,9.4
2019-02-20T11:30:39.231Z,9.4
2019-02-20T11:31:41.365Z,9.5
2019-02-20T11:32:43.784Z,9.5
2019-02-20T11:33:45.920Z,9.4
2019-02-20T11:34:48.069Z,9.4
2019-02-20T11:35:50.184Z,9.3
2019-02-20T11:36:52.324Z,9.3
2019-02-20T11:37:54.777Z,9.3
2019-02-20T11:38:56.905Z,9.4
2019-02-20T11:39:59.412Z,9.4
2019-02-20T11:41:01.594Z,9.5
2019-02-20T11:42:04.051Z,9.7
2019-02-20T11:43:07.363Z,9.6
2019-02-20T11:44:09.820Z,9.5
2019-02-20T11:45:11.926Z,9.4
2019-02-20T11:46:14.113Z,9.4
2019-02-20T11:47:16.233Z,9.5
2019-02-20T11:48:18.412Z,9.4
2019-02-20T11:49:20.619Z,9.4
2019-02-20T11:50:22.752Z,9.4
2019-02-20T11:51:24.877Z,9.4
2019-02-20T11:52:26.995Z,9.3
2019-02-20T11:53:38.410Z,9.4
2019-02-20T11:54:40.540Z,9.3
2019-02-20T11:55:42.666Z,9.4
2019-02-20T11:56:44.823Z,9.4
2019-02-20T11:57:47.532Z,9.4
2019-02-20T11:58:49.681Z,9.4
2019-02-20T11:59:51.802Z,9.4
2019-02-20T12:00:54.056Z,9.5
2019-02-20T12:01:56.203Z,9.5
2019-02-20T12:02:58.330Z,9.6
2019-02-20T12:04:00.834Z,9.6
2019-02-20T12:05:03.262Z,9.5
2019-02-20T12:06:05.376Z,9.5
2019-02-20T12:07:07.898Z,9.6
2019-02-20T12:08:10.019Z,9.6
2019-02-20T12:09:12.128Z,9.6
2019-02-20T12:10:14.272Z,9.6
2019-02-20T12:11:17.066Z,9.6
2019-02-20T12:12:19.184Z,9.7
2019-02-20T12:13:21.299Z,9.8
2019-02-20T12:14:27.124Z,9.7
2019-02-20T12:15:31.019Z,9.6
2019-02-20T12:16:33.799Z,9.7
2019-02-20T12:17:36.589Z,9.7
2019-02-20T12:18:38.978Z,9.7
2019-02-20T12:19:41.102Z,9.6
2019-02-20T12:20:43.229Z,9.6
2019-02-20T12:21:45.341Z,9.5
2019-02-20T12:22:47.459Z,9.6
2019-02-20T12:23:49.618Z,9.6
2019-02-20T12:24:52.039Z,9.7
2019-02-20T12:25:55.474Z,9.6
2019-02-20T12:26:57.882Z,9.5
2019-02-20T12:28:00.008Z,9.5
2019-02-20T12:29:02.134Z,9.5
2019-02-20T12:30:04.539Z,9.5
2019-02-20T12:31:06.976Z,9.6
2019-02-20T12:32:09.482Z,9.6
2019-02-20T12:33:11.925Z,9.5
2019-02-20T12:34:14.344Z,9.5
2019-02-20T12:35:16.466Z,9.5
2019-02-20T12:36:18.647Z,9.5
2019-02-20T12:37:21.148Z,9.4
2019-02-20T12:38:23.560Z,9.4
2019-02-20T12:39:25.669Z,9.5
2019-02-20T12:40:31.366Z,9.5
2019-02-20T12:41:33.502Z,9.6
2019-02-20T12:42:35.927Z,9.6
2019-02-20T12:43:38.067Z,9.8
2019-02-20T12:44:40.173Z,9.7
2019-02-20T12:45:42.303Z,9.8
2019-02-20T12:46:44.421Z,9.8
2019-02-20T12:47:46.598Z,9.7
2019-02-20T12:48:49.005Z,9.8
2019-02-20T12:49:52.610Z,9.8
2019-02-20T12:50:54.739Z,9.9
2019-02-20T12:51:56.865Z,9.8
2019-02-20T12:52:58.997Z,9.7
2019-02-20T12:54:01.121Z,9.8
2019-02-20T12:55:03.517Z,9.8
2019-02-20T12:56:11.642Z,9.7
2019-02-20T12:57:13.793Z,9.6
2019-02-20T12:58:15.924Z,9.6
2019-02-20T12:59:18.055Z,9.5
2019-02-20T13:00:20.182Z,9.5
2019-02-20T13:01:22.293Z,9.6
2019-02-20T13:02:24.692Z,9.6
2019-02-20T13:03:26.806Z,9.6
2019-02-20T13:04:29.333Z,9.5
2019-02-20T13:05:31.458Z,9.5
2019-02-20T13:06:33.574Z,9.5
2019-02-20T13:07:36.389Z,9.5
2019-02-20T13:08:38.803Z,9.4
2019-02-20T13:09:41.217Z,9.5
2019-02-20T13:10:43.350Z,9.4
2019-02-20T13:11:45.480Z,9.5
2019-02-20T13:12:47.975Z,9.4
2019-02-20T13:13:50.276Z,9.4
2019-02-20T13:14:52.778Z,9.5
2019-02-20T13:15:54.890Z,9.5
2019-02-20T13:16:57.033Z,9.4
2019-02-20T13:17:59.439Z,9.4
2019-02-20T13:19:01.565Z,9.4
2019-02-20T13:20:03.694Z,9.5
2019-02-20T13:21:05.851Z,9.5
2019-02-20T13:22:08.270Z,9.4
2019-02-20T13:23:10.785Z,9.4
2019-02-20T13:24:12.929Z,9.5
2019-02-20T13:25:15.065Z,9.5
2019-02-20T13:26:17.498Z,9.6
2019-02-20T13:27:24.329Z,9.6
2019-02-20T13:28:26.487Z,9.6
2019-02-20T13:29:28.623Z,9.6
2019-02-20T13:30:30.762Z,9.5
2019-02-20T13:31:33.167Z,9.5
2019-02-20T13:32:35.585Z,9.6
2019-02-20T13:33:38.098Z,9.5
2019-02-20T13:34:40.211Z,9.4
2019-02-20T13:35:42.333Z,9.5
2019-02-20T13:36:44.469Z,9.5
2019-02-20T13:37:46.575Z,9.5
2019-02-20T13:38:48.728Z,9.5
2019-02-20T13:39:53.367Z,9.4
2019-02-20T13:40:55.898Z,9.4
2019-02-20T13:41:58.696Z,9.5
2019-02-20T13:43:00.860Z,9.5
2019-02-20T13:44:03.050Z,9.5
2019-02-20T13:45:05.256Z,9.5
2019-02-20T13:46:07.727Z,9.5
2019-02-20T13:47:09.907Z,9.5
2019-02-20T13:48:12.383Z,9.5
2019-02-20T13:49:14.578Z,9.5
2019-02-20T13:50:17.197Z,9.5
2019-02-20T13:51:19.835Z,9.6
2019-02-20T13:52:23.070Z,9.6
2019-02-20T13:53:25.252Z,9.6
2019-02-20T13:54:27.691Z,9.6
2019-02-20T13:55:35.877Z,9.6
2019-02-20T13:56:38.046Z,9.5
2019-02-20T13:57:40.890Z,9.6
2019-02-20T13:58:43.078Z,9.6
2019-02-20T13:59:45.258Z,9.6
2019-02-20T14:00:47.452Z,9.6
2019-02-20T14:01:50.178Z,9.7
2019-02-20T14:02:53.265Z,9.8
2019-02-20T14:03:56.473Z,9.7
2019-02-20T14:04:58.662Z,9.8
2019-02-20T14:06:01.545Z,9.8
2019-02-20T14:07:03.748Z,9.8
2019-02-20T14:08:06.219Z,9.8
2019-02-20T14:09:09.020Z,9.9
2019-02-20T14:10:11.476Z,9.9
2019-02-20T14:11:13.677Z,9.9
2019-02-20T14:12:15.862Z,9.9
2019-02-20T14:13:19.166Z,9.8
2019-02-20T14:14:22.097Z,9.8
2019-02-20T14:15:24.821Z,9.9
2019-02-20T14:16:27.628Z,9.8
2019-02-20T14:17:29.805Z,9.9
2019-02-20T14:18:32.369Z,9.9
2019-02-20T14:19:34.561Z,9.8
2019-02-20T14:20:37.030Z,9.9
2019-02-20T14:21:39.501Z,9.9
2019-02-20T14:22:41.717Z,9.9
2019-02-20T14:23:44.170Z,9.9